Time;durP1;ratioP1;P1;durP2;ratioP2;P2;SDS_P1;SDS_P2;PMS_P1;PMS_P2;Temp;Humidity;BMP_temperature;BMP_pressure;BME280_temperature;BME280_humidity;BME280_pressure;Samples;Min_cycle;Max_cycle;Signal;HPM_P1;HPM_P2
2022/09/07 00:01:03;;;;;;;0.00;0.00;;;20.30;99.10;;;;;;5062476;28;20056;-79
2022/09/07 00:03:30;;;;;;;0.00;0.00;;;20.30;99.30;;;;;;5069351;28;20086;-79
2022/09/07 00:05:57;;;;;;;0.00;0.00;;;20.30;99.50;;;;;;5065759;28;20076;-79
2022/09/07 00:08:25;;;;;;;0.00;0.00;;;20.30;99.20;;;;;;5069895;28;20074;-79
2022/09/07 00:10:54;;;;;;;0.00;0.00;;;20.40;99.60;;;;;;5061929;28;20047;-79
2022/09/07 00:13:23;;;;;;;0.00;0.00;;;20.40;99.10;;;;;;5067946;28;20397;-79
2022/09/07 00:15:50;;;;;;;0.00;0.00;;;20.50;98.80;;;;;;5056607;28;20094;-77
2022/09/07 00:18:19;;;;;;;0.00;0.00;;;20.40;99.30;;;;;;5069273;28;20076;-77
2022/09/07 00:20:46;;;;;;;0.00;0.00;;;20.40;99.60;;;;;;5064780;28;20496;-79
2022/09/07 00:23:13;;;;;;;0.00;0.00;;;20.50;99.50;;;;;;5064550;28;20040;-79
2022/09/07 00:25:40;;;;;;;0.00;0.00;;;20.40;99.70;;;;;;5060622;28;20047;-78
2022/09/07 00:28:07;;;;;;;0.00;0.00;;;20.40;99.60;;;;;;5065880;28;20093;-79
2022/09/07 00:30:40;;;;;;;0.00;0.00;;;20.50;99.30;;;;;;5064733;28;20126;-77
2022/09/07 00:33:07;;;;;;;0.00;0.00;;;20.50;99.30;;;;;;5068268;28;20048;-78
2022/09/07 00:35:39;;;;;;;0.00;0.00;;;20.60;99.20;;;;;;5064719;28;20044;-78
2022/09/07 00:38:06;;;;;;;0.00;0.00;;;20.60;99.10;;;;;;5064073;28;20102;-78
2022/09/07 00:40:33;;;;;;;0.00;0.00;;;20.60;99.10;;;;;;5056479;28;20061;-79
2022/09/07 00:43:00;;;;;;;0.00;0.00;;;20.60;99.30;;;;;;5063240;28;20048;-79
2022/09/07 00:45:27;;;;;;;0.00;0.00;;;20.50;99.40;;;;;;5064915;28;20048;-79
2022/09/07 00:47:59;;;;;;;0.00;0.00;;;20.50;99.70;;;;;;5060260;28;20098;-79
2022/09/07 00:50:29;;;;;;;0.00;0.00;;;20.50;99.50;;;;;;5069124;28;20094;-79
2022/09/07 00:53:01;;;;;;;0.00;0.00;;;20.60;99.30;;;;;;5064550;28;20464;-80
2022/09/07 00:55:29;;;;;;;0.00;0.00;;;20.60;99.40;;;;;;5066040;28;20071;-79
2022/09/07 00:57:57;;;;;;;0.00;0.00;;;20.60;99.40;;;;;;5054207;28;20036;-79
2022/09/07 01:00:25;;;;;;;0.00;0.00;;;20.60;99.30;;;;;;5064427;28;20044;-79
2022/09/07 01:02:55;;;;;;;0.00;0.00;;;20.60;99.20;;;;;;5088213;28;20122;-79
2022/09/07 01:05:27;;;;;;;0.00;0.00;;;20.60;99.60;;;;;;5062780;28;20037;-77
2022/09/07 01:07:55;;;;;;;0.00;0.00;;;20.60;99.50;;;;;;5063564;28;20049;-78
2022/09/07 01:10:30;;;;;;;0.00;0.00;;;20.70;99.20;;;;;;5059412;28;20094;-77
2022/09/07 01:12:57;;;;;;;0.00;0.00;;;20.70;99.40;;;;;;5061494;28;20109;-78
2022/09/07 01:15:33;;;;;;;0.00;0.00;;;20.60;99.50;;;;;;5063944;28;20048;-79
2022/09/07 01:18:07;;;;;;;0.00;0.00;;;20.60;99.60;;;;;;5064329;28;20040;-79
2022/09/07 01:20:55;;;;;;;0.00;0.00;;;20.60;99.70;;;;;;5066609;28;20044;-79
2022/09/07 01:23:42;;;;;;;0.00;0.00;;;20.50;99.90;;;;;;5062603;28;20032;-79
2022/09/07 01:26:38;;;;;;;0.00;0.00;;;20.40;99.90;;;;;;5059558;28;20045;-78
2022/09/07 01:29:15;;;;;;;0.00;0.00;;;20.40;99.90;;;;;;5073739;28;20036;-78
2022/09/07 01:31:50;;;;;;;0.00;0.00;;;20.40;99.90;;;;;;5058054;28;20447;-78
2022/09/07 01:34:21;;;;;;;0.00;0.00;;;20.40;99.90;;;;;;5062695;28;20076;-79
2022/09/07 01:36:56;;;;;;;0.00;0.00;;;20.40;99.90;;;;;;5056510;28;20099;-79
2022/09/07 01:39:28;;;;;;;0.00;0.00;;;20.30;99.90;;;;;;5063645;28;20083;-79
2022/09/07 01:42:00;;;;;;;0.00;0.00;;;20.30;99.90;;;;;;5067428;28;20507;-79
2022/09/07 01:44:33;;;;;;;0.00;0.00;;;20.30;99.90;;;;;;5065632;28;20036;-79
2022/09/07 01:47:04;;;;;;;0.00;0.00;;;20.40;99.90;;;;;;5062299;28;20057;-79
2022/09/07 01:49:35;;;;;;;0.00;0.00;;;20.40;99.90;;;;;;5065292;28;20454;-79
2022/09/07 01:52:06;;;;;;;0.00;0.00;;;20.40;99.90;;;;;;5078682;28;20033;-79
2022/09/07 01:54:39;;;;;;;0.00;0.00;;;20.40;99.90;;;;;;5067318;28;20047;-79
2022/09/07 01:57:12;;;;;;;0.00;0.00;;;20.40;99.90;;;;;;5061839;28;20492;-80
2022/09/07 01:59:43;;;;;;;0.00;0.00;;;20.50;99.90;;;;;;5076577;28;20111;-79
2022/09/07 02:02:15;;;;;;;0.00;0.00;;;20.50;99.90;;;;;;5065861;28;20036;-79
2022/09/07 02:04:47;;;;;;;0.00;0.00;;;20.50;99.90;;;;;;5065758;28;20040;-79
2022/09/07 02:07:19;;;;;;;0.00;0.00;;;20.50;99.90;;;;;;5060572;28;20041;-79
2022/09/07 02:09:50;;;;;;;0.00;0.00;;;20.40;99.90;;;;;;5066254;28;20053;-79
2022/09/07 02:12:21;;;;;;;0.00;0.00;;;20.30;99.90;;;;;;5061378;28;20463;-79
2022/09/07 02:14:54;;;;;;;0.00;0.00;;;20.30;99.90;;;;;;5068522;28;20052;-78
2022/09/07 02:17:27;;;;;;;0.00;0.00;;;20.30;99.90;;;;;;5084441;28;20041;-79
2022/09/07 02:20:00;;;;;;;0.00;0.00;;;20.30;99.90;;;;;;5075697;28;20126;-79
2022/09/07 02:22:33;;;;;;;0.00;0.00;;;20.30;99.90;;;;;;5059442;28;20041;-79
2022/09/07 02:25:03;;;;;;;0.00;0.00;;;20.30;99.90;;;;;;5063869;28;20028;-79
2022/09/07 02:27:35;;;;;;;0.00;0.00;;;20.30;99.90;;;;;;5069707;28;20036;-79
2022/09/07 02:30:05;;;;;;;0.00;0.00;;;20.20;99.90;;;;;;5066766;28;20037;-79
2022/09/07 02:32:32;;;;;;;0.00;0.00;;;20.30;99.90;;;;;;5067299;28;20044;-79
2022/09/07 02:34:59;;;;;;;0.00;0.00;;;20.30;99.90;;;;;;5066970;28;20122;-79
2022/09/07 02:37:27;;;;;;;0.00;0.00;;;20.30;99.90;;;;;;5063996;28;20044;-80
2022/09/07 02:39:54;;;;;;;0.00;0.00;;;20.30;99.90;;;;;;5068034;28;20044;-78
2022/09/07 02:42:21;;;;;;;0.00;0.00;;;20.30;99.90;;;;;;5070352;28;20070;-77
2022/09/07 02:44:48;;;;;;;0.00;0.00;;;20.40;99.90;;;;;;5068482;28;20492;-79
2022/09/07 02:47:27;;;;;;;0.00;0.00;;;20.40;99.90;;;;;;5063793;28;20041;-79
2022/09/07 02:50:11;;;;;;;0.00;0.00;;;20.40;99.90;;;;;;5065524;28;20667;-79
2022/09/07 02:52:47;;;;;;;0.00;0.00;;;20.20;99.90;;;;;;5067205;28;20067;-79
2022/09/07 02:55:25;;;;;;;0.00;0.00;;;20.20;99.90;;;;;;5063773;28;20550;-79
2022/09/07 02:58:04;;;;;;;0.00;0.00;;;20.20;99.90;;;;;;5063914;28;20037;-79
2022/09/07 03:00:38;;;;;;;0.00;0.00;;;20.10;99.90;;;;;;5068320;28;20471;-79
2022/09/07 03:03:13;;;;;;;0.00;0.00;;;19.90;99.90;;;;;;5055728;28;20053;-77
2022/09/07 03:05:44;;;;;;;0.00;0.00;;;19.90;99.90;;;;;;5064584;28;20037;-78
2022/09/07 03:08:17;;;;;;;0.00;0.00;;;19.80;99.90;;;;;;5061573;28;20530;-79
2022/09/07 03:10:44;;;;;;;0.00;0.00;;;19.70;99.90;;;;;;5067033;28;20076;-79
2022/09/07 03:13:19;;;;;;;0.00;0.00;;;19.80;99.90;;;;;;5063197;28;20066;-79
2022/09/07 03:15:46;;;;;;;0.00;0.00;;;19.70;99.90;;;;;;5065072;28;20090;-79
2022/09/07 03:18:19;;;;;;;0.00;0.00;;;19.60;99.90;;;;;;5065536;28;20488;-79
2022/09/07 03:20:46;;;;;;;0.00;0.00;;;19.60;99.90;;;;;;5070780;28;20102;-79
2022/09/07 03:23:13;;;;;;;0.00;0.00;;;19.60;99.90;;;;;;5066871;28;20036;-79
2022/09/07 03:25:40;;;;;;;0.00;0.00;;;19.60;99.90;;;;;;5067182;28;20462;-79
2022/09/07 03:28:06;;;;;;;0.00;0.00;;;19.60;99.90;;;;;;5069014;28;20032;-79
2022/09/07 03:30:33;;;;;;;0.00;0.00;;;19.60;99.90;;;;;;5067264;28;20527;-79
2022/09/07 03:33:00;;;;;;;0.00;0.00;;;19.60;99.90;;;;;;5062561;28;20052;-79
2022/09/07 03:35:29;;;;;;;0.00;0.00;;;19.60;99.90;;;;;;5063764;28;20051;-78
2022/09/07 03:37:55;;;;;;;0.00;0.00;;;19.70;99.90;;;;;;5069130;28;20090;-79
2022/09/07 03:40:22;;;;;;;0.00;0.00;;;19.70;99.90;;;;;;5062216;28;20509;-79
2022/09/07 03:42:49;;;;;;;0.00;0.00;;;19.70;99.90;;;;;;5061492;28;20061;-77
2022/09/07 03:45:16;;;;;;;0.00;0.00;;;19.60;99.90;;;;;;5068062;28;20496;-79
2022/09/07 03:47:44;;;;;;;0.00;0.00;;;19.50;99.90;;;;;;5064028;28;20056;-79
2022/09/07 03:50:11;;;;;;;0.00;0.00;;;19.50;99.90;;;;;;5066542;28;20032;-78
2022/09/07 03:52:39;;;;;;;0.00;0.00;;;19.50;99.90;;;;;;5066642;28;20079;-78
2022/09/07 03:55:06;;;;;;;0.00;0.00;;;19.50;99.90;;;;;;5064059;28;20032;-79
2022/09/07 03:57:33;;;;;;;0.00;0.00;;;19.40;99.90;;;;;;5064540;28;20049;-77
2022/09/07 04:00:00;;;;;;;0.00;0.00;;;19.40;99.90;;;;;;5066315;28;20044;-78
2022/09/07 04:02:27;;;;;;;0.00;0.00;;;19.40;99.90;;;;;;5061261;28;20048;-79
2022/09/07 04:04:54;;;;;;;0.00;0.00;;;19.40;99.90;;;;;;5063457;28;20422;-79
2022/09/07 04:07:20;;;;;;;0.00;0.00;;;19.20;99.90;;;;;;5063573;28;20090;-79
2022/09/07 04:09:50;;;;;;;0.00;0.00;;;19.30;99.90;;;;;;5061431;28;20052;-79
2022/09/07 04:12:17;;;;;;;0.00;0.00;;;19.40;99.90;;;;;;5064568;28;20040;-79
2022/09/07 04:14:44;;;;;;;0.00;0.00;;;19.20;99.90;;;;;;5062355;28;20036;-79
2022/09/07 04:17:11;;;;;;;0.00;0.00;;;19.00;99.90;;;;;;5062971;28;20470;-78
2022/09/07 04:19:38;;;;;;;0.00;0.00;;;19.00;99.90;;;;;;5070156;28;20044;-79
2022/09/07 04:22:05;;;;;;;0.00;0.00;;;19.00;99.90;;;;;;5059976;28;20776;-81
2022/09/07 04:24:31;;;;;;;0.00;0.00;;;18.90;99.90;;;;;;5069813;28;20036;-77
2022/09/07 04:27:00;;;;;;;0.00;0.00;;;18.90;99.90;;;;;;5066009;28;20094;-80
2022/09/07 04:29:27;;;;;;;0.00;0.00;;;18.90;99.90;;;;;;5062977;28;20586;-79
2022/09/07 04:31:54;;;;;;;0.00;0.00;;;18.90;99.90;;;;;;5061093;28;20052;-78
2022/09/07 04:34:21;;;;;;;0.00;0.00;;;18.90;99.90;;;;;;5058749;28;20045;-79
2022/09/07 04:36:48;;;;;;;0.00;0.00;;;18.90;99.90;;;;;;5064945;28;20044;-79
2022/09/07 04:39:14;;;;;;;0.00;0.00;;;19.00;99.90;;;;;;5059146;28;20125;-79
2022/09/07 04:41:41;;;;;;;0.00;0.00;;;18.80;99.90;;;;;;5064990;28;20601;-78
2022/09/07 04:44:10;;;;;;;0.00;0.00;;;18.80;99.90;;;;;;5066261;28;20033;-77
2022/09/07 04:46:42;;;;;;;0.00;0.00;;;18.90;99.90;;;;;;5063740;28;20256;-80
2022/09/07 04:49:10;;;;;;;0.00;0.00;;;18.90;99.90;;;;;;5064781;28;20040;-79
2022/09/07 04:51:38;;;;;;;0.00;0.00;;;18.90;99.90;;;;;;5071504;28;20041;-77
2022/09/07 04:54:05;;;;;;;0.00;0.00;;;18.80;99.90;;;;;;5071282;28;20055;-78
2022/09/07 04:56:32;;;;;;;0.00;0.00;;;18.90;99.90;;;;;;5068694;28;20041;-79
2022/09/07 04:59:00;;;;;;;0.00;0.00;;;19.00;99.90;;;;;;5060318;28;20500;-79
2022/09/07 05:01:29;;;;;;;0.00;0.00;;;19.00;99.90;;;;;;5063049;28;20479;-79
2022/09/07 05:03:57;;;;;;;0.00;0.00;;;19.00;99.90;;;;;;5063391;28;20048;-79
2022/09/07 05:06:24;;;;;;;0.00;0.00;;;18.90;99.90;;;;;;5063659;28;20310;-79
2022/09/07 05:08:52;;;;;;;0.00;0.00;;;18.90;99.90;;;;;;5069079;28;20053;-79
2022/09/07 05:11:20;;;;;;;0.00;0.00;;;18.90;99.90;;;;;;5069200;28;20553;-77
2022/09/07 05:13:54;;;;;;;0.00;0.00;;;18.90;99.90;;;;;;5068244;28;20048;-79
2022/09/07 05:16:22;;;;;;;0.00;0.00;;;18.90;99.90;;;;;;5061137;28;20431;-79
2022/09/07 05:18:52;;;;;;;0.00;0.00;;;19.00;99.90;;;;;;5064678;28;20106;-80
2022/09/07 05:21:20;;;;;;;;;;;19.00;99.90;;;;;;5067871;28;20049;-77
2022/09/07 05:23:49;;;;;;;0.00;0.00;;;18.90;99.90;;;;;;5064213;28;19928;-79
2022/09/07 05:26:17;;;;;;;0.05;0.05;;;18.90;99.90;;;;;;5063848;28;20507;-78
2022/09/07 05:28:44;;;;;;;0.00;0.00;;;18.80;99.90;;;;;;5067772;28;20044;-79
2022/09/07 05:31:13;;;;;;;0.00;0.00;;;18.80;99.90;;;;;;5069316;28;20074;-79
2022/09/07 05:33:45;;;;;;;0.00;0.00;;;18.90;99.90;;;;;;5070455;28;20055;-80
2022/09/07 05:36:33;;;;;;;0.00;0.00;;;18.90;99.90;;;;;;5064746;28;20040;-79
2022/09/07 05:39:00;;;;;;;0.00;0.00;;;18.80;99.90;;;;;;5067250;28;20500;-78
2022/09/07 05:41:26;;;;;;;0.00;0.00;;;18.80;99.90;;;;;;5072392;28;20510;-78
2022/09/07 05:43:54;;;;;;;0.00;0.00;;;18.80;99.90;;;;;;5075077;28;20052;-79
2022/09/07 05:46:40;;;;;;;0.00;0.00;;;18.90;99.90;;;;;;5073613;28;20051;-79
2022/09/07 05:49:07;;;;;;;0.00;0.00;;;18.90;99.90;;;;;;5076072;28;20036;-78
2022/09/07 05:51:36;;;;;;;0.00;0.00;;;18.90;99.90;;;;;;5073052;28;20093;-79
2022/09/07 05:54:03;;;;;;;0.00;0.00;;;18.80;99.90;;;;;;5077268;28;20091;-79
2022/09/07 05:56:32;;;;;;;0.00;0.00;;;18.70;99.90;;;;;;5068610;28;20033;-79
2022/09/07 05:58:59;;;;;;;;;;;18.60;99.90;;;;;;5074409;28;20032;-79
2022/09/07 06:01:26;;;;;;;0.00;0.00;;;18.70;99.90;;;;;;5069644;28;19966;-79
2022/09/07 06:03:53;;;;;;;0.00;0.00;;;18.80;99.90;;;;;;5079100;28;20466;-79
2022/09/07 06:06:20;;;;;;;0.00;0.00;;;18.90;99.90;;;;;;5069153;28;20536;-79
2022/09/07 06:08:50;;;;;;;0.00;0.00;;;18.90;99.90;;;;;;5071714;28;20045;-77
2022/09/07 06:11:19;;;;;;;0.00;0.00;;;19.00;99.90;;;;;;5080173;28;20442;-79
2022/09/07 06:13:46;;;;;;;0.00;0.00;;;19.10;99.90;;;;;;5077198;28;20053;-79
2022/09/07 06:16:14;;;;;;;0.00;0.00;;;19.10;99.90;;;;;;5076698;28;20286;-79
2022/09/07 06:18:43;;;;;;;0.00;0.00;;;19.10;99.90;;;;;;5070081;28;20645;-79
2022/09/07 06:21:11;;;;;;;0.00;0.00;;;19.10;99.90;;;;;;5082927;28;20053;-78
2022/09/07 06:23:40;;;;;;;0.00;0.00;;;19.10;99.90;;;;;;5072164;28;20320;-79
2022/09/07 06:26:09;;;;;;;0.00;0.00;;;19.10;99.90;;;;;;5078721;28;20335;-80
2022/09/07 06:28:38;;;;;;;0.08;0.08;;;19.10;99.90;;;;;;5084903;28;20053;-79
2022/09/07 06:31:06;;;;;;;0.00;0.00;;;19.20;99.90;;;;;;5077109;28;20078;-79
2022/09/07 06:33:33;;;;;;;0.00;0.00;;;19.10;99.90;;;;;;5080476;28;20045;-81
2022/09/07 06:36:02;;;;;;;0.00;0.00;;;19.20;99.90;;;;;;5081499;28;20036;-79
2022/09/07 06:38:30;;;;;;;0.00;0.00;;;19.20;99.90;;;;;;5078745;28;20048;-79
2022/09/07 06:41:00;;;;;;;0.00;0.00;;;19.20;99.90;;;;;;5082078;28;20096;-79
2022/09/07 06:43:49;;;;;;;0.00;0.00;;;19.20;99.90;;;;;;5082598;28;20099;-79
2022/09/07 06:46:16;;;;;;;0.00;0.00;;;19.30;99.90;;;;;;5074210;28;20033;-80
2022/09/07 06:49:03;;;;;;;0.00;0.00;;;19.40;99.90;;;;;;5068499;28;20049;-77
2022/09/07 06:51:31;;;;;;;0.00;0.00;;;19.50;99.90;;;;;;5073098;28;20044;-77
2022/09/07 06:54:00;;;;;;;0.00;0.00;;;19.50;99.90;;;;;;5070965;28;20454;-78
2022/09/07 06:56:47;;;;;;;0.00;0.00;;;19.60;99.90;;;;;;5085025;28;20052;-79
2022/09/07 06:59:15;;;;;;;0.00;0.00;;;19.70;99.90;;;;;;5081087;28;20048;-79
2022/09/07 07:01:42;;;;;;;0.00;0.00;;;19.70;99.90;;;;;;5088491;28;20527;-78
2022/09/07 07:04:09;;;;;;;0.00;0.00;;;19.70;99.90;;;;;;5075509;28;20040;-79
2022/09/07 07:06:37;;;;;;;0.00;0.00;;;19.70;99.90;;;;;;5063972;28;20045;-79
2022/09/07 07:09:05;;;;;;;0.00;0.00;;;19.80;99.90;;;;;;5080497;28;20036;-79
2022/09/07 07:11:32;;;;;;;0.00;0.00;;;19.80;99.90;;;;;;5076999;28;20057;-77
2022/09/07 07:13:59;;;;;;;0.00;0.00;;;19.70;99.90;;;;;;5078556;28;20464;-78
2022/09/07 07:16:27;;;;;;;0.00;0.00;;;19.70;99.90;;;;;;5069100;28;20040;-79
2022/09/07 07:18:54;;;;;;;0.00;0.00;;;19.80;99.90;;;;;;5078553;28;20093;-79
2022/09/07 07:21:21;;;;;;;0.00;0.00;;;19.90;99.90;;;;;;5073103;28;20036;-78
2022/09/07 07:23:49;;;;;;;0.00;0.00;;;19.80;99.90;;;;;;5073878;28;20040;-78
2022/09/07 07:26:19;;;;;;;0.00;0.00;;;19.80;99.90;;;;;;5077027;28;20487;-76
2022/09/07 07:28:48;;;;;;;0.00;0.00;;;19.80;99.90;;;;;;5083955;28;20090;-78
2022/09/07 07:31:32;;;;;;;0.00;0.00;;;19.90;99.90;;;;;;5073043;28;20119;-79
2022/09/07 07:33:59;;;;;;;0.00;0.00;;;20.00;99.90;;;;;;5067663;28;20044;-79
2022/09/07 07:36:27;;;;;;;0.00;0.00;;;20.10;99.90;;;;;;5066965;28;20056;-79
2022/09/07 07:38:54;;;;;;;0.00;0.00;;;20.20;99.90;;;;;;5080449;28;20052;-79
2022/09/07 07:41:30;;;;;;;0.00;0.00;;;20.30;99.90;;;;;;5068437;28;20052;-79
2022/09/07 07:44:16;;;;;;;0.00;0.00;;;20.40;99.90;;;;;;5066880;28;20040;-79
2022/09/07 07:46:48;;;;;;;0.00;0.00;;;20.50;99.90;;;;;;5076958;28;20056;-77
2022/09/07 07:49:14;;;;;;;0.00;0.00;;;20.50;99.90;;;;;;5069091;28;20033;-79
2022/09/07 07:51:41;;;;;;;0.00;0.00;;;20.50;99.90;;;;;;5079721;28;20043;-78
2022/09/07 07:54:28;;;;;;;0.00;0.00;;;20.60;99.90;;;;;;5079470;28;20508;-79
2022/09/07 07:56:55;;;;;;;0.00;0.00;;;20.70;99.90;;;;;;5077172;28;20036;-79
2022/09/07 07:59:22;;;;;;;0.00;0.00;;;20.70;99.90;;;;;;5070071;28;20133;-79
2022/09/07 08:01:50;;;;;;;0.00;0.00;;;20.70;99.90;;;;;;5070016;28;20048;-79
2022/09/07 08:04:17;;;;;;;0.00;0.00;;;20.60;99.90;;;;;;5072454;28;20047;-79
2022/09/07 08:06:44;;;;;;;0.00;0.00;;;20.70;99.90;;;;;;5071648;28;20043;-79
2022/09/07 08:09:10;;;;;;;0.00;0.00;;;20.80;99.90;;;;;;5068133;28;20050;-79
2022/09/07 08:11:39;;;;;;;0.00;0.00;;;20.80;99.90;;;;;;5076291;28;20049;-79
2022/09/07 08:14:07;;;;;;;0.00;0.00;;;21.00;99.90;;;;;;5079399;28;20083;-79
2022/09/07 08:16:35;;;;;;;0.00;0.00;;;21.00;99.90;;;;;;5070881;28;20040;-78
2022/09/07 08:19:04;;;;;;;0.00;0.00;;;21.10;99.90;;;;;;5075068;28;20036;-79
2022/09/07 08:21:31;;;;;;;0.00;0.00;;;21.20;99.90;;;;;;5070297;28;20223;-79
2022/09/07 08:23:58;;;;;;;0.00;0.00;;;21.20;99.90;;;;;;5066274;28;20048;-79
2022/09/07 08:26:26;;;;;;;0.00;0.00;;;21.30;99.90;;;;;;5071225;28;20029;-79
2022/09/07 08:28:54;;;;;;;0.00;0.00;;;21.40;99.90;;;;;;5099968;28;20045;-80
2022/09/07 08:31:21;;;;;;;0.00;0.00;;;21.40;99.90;;;;;;5065990;28;20048;-79
2022/09/07 08:33:48;;;;;;;0.00;0.00;;;21.40;99.90;;;;;;5084255;28;20051;-79
2022/09/07 08:36:18;;;;;;;0.00;0.00;;;21.60;99.90;;;;;;5084475;28;20040;-79
2022/09/07 08:38:45;;;;;;;0.00;0.00;;;21.80;99.90;;;;;;5072127;28;20044;-79
2022/09/07 08:41:31;;;;;;;0.00;0.00;;;22.00;99.90;;;;;;5087526;28;20046;-79
2022/09/07 08:44:00;;;;;;;0.00;0.00;;;22.20;99.90;;;;;;5081365;28;20044;-79
2022/09/07 08:46:31;;;;;;;0.00;0.00;;;22.30;99.90;;;;;;5075291;28;20454;-78
2022/09/07 08:49:02;;;;;;;0.00;0.00;;;22.40;99.90;;;;;;5064056;28;20044;-79
2022/09/07 08:51:35;;;;;;;0.00;0.00;;;22.60;99.90;;;;;;5077256;28;20416;-79
2022/09/07 08:54:04;;;;;;;0.00;0.00;;;22.60;99.90;;;;;;5074418;28;20062;-79
2022/09/07 08:56:36;;;;;;;0.00;0.00;;;22.80;99.90;;;;;;5074560;28;20021;-79
2022/09/07 08:59:14;;;;;;;0.00;0.00;;;22.90;99.90;;;;;;5083956;28;20643;-79
2022/09/07 09:01:42;;;;;;;0.00;0.00;;;22.90;99.90;;;;;;5075072;28;20048;-79
2022/09/07 09:04:28;;;;;;;0.00;0.00;;;23.10;99.90;;;;;;5076028;28;20515;-79
2022/09/07 09:07:09;;;;;;;0.00;0.00;;;23.20;99.90;;;;;;5071178;28;20043;-79
2022/09/07 09:09:55;;;;;;;0.00;0.00;;;23.30;99.90;;;;;;5068308;28;20044;-79
2022/09/07 09:12:30;;;;;;;0.00;0.00;;;23.40;99.90;;;;;;5073267;28;20028;-79
2022/09/07 09:15:14;;;;;;;0.00;0.00;;;23.40;99.90;;;;;;5074729;28;20049;-79
2022/09/07 09:17:50;;;;;;;0.00;0.00;;;23.30;99.90;;;;;;5078334;28;20043;-79
2022/09/07 09:20:25;;;;;;;0.00;0.00;;;23.40;99.90;;;;;;5084588;28;20136;-79
2022/09/07 09:22:59;;;;;;;0.00;0.00;;;23.40;99.90;;;;;;5072319;28;20039;-79
2022/09/07 09:25:32;;;;;;;0.00;0.00;;;23.40;99.90;;;;;;5081530;28;20072;-79
2022/09/07 09:27:59;;;;;;;0.00;0.00;;;23.40;99.90;;;;;;5075691;28;20403;-79
2022/09/07 09:30:27;;;;;;;0.00;0.00;;;23.50;99.90;;;;;;5070878;28;20399;-78
2022/09/07 09:33:13;;;;;;;0.00;0.00;;;23.70;99.90;;;;;;5068251;28;20048;-79
2022/09/07 09:35:40;;;;;;;0.00;0.00;;;23.90;99.90;;;;;;5082360;28;20051;-78
2022/09/07 09:38:34;;;;;;;0.00;0.00;;;24.10;99.80;;;;;;5076866;28;20518;-78
2022/09/07 09:41:06;;;;;;;0.00;0.00;;;24.20;99.40;;;;;;5085985;28;20109;-79
2022/09/07 09:43:39;;;;;;;0.00;0.00;;;24.30;99.40;;;;;;5070462;28;20037;-78
2022/09/07 09:46:17;;;;;;;0.00;0.00;;;24.50;99.00;;;;;;5070637;28;20115;-79
2022/09/07 09:48:51;;;;;;;0.00;0.00;;;24.40;99.00;;;;;;5073286;28;20489;-78
2022/09/07 09:51:19;;;;;;;0.00;0.00;;;24.40;98.40;;;;;;5073370;28;20039;-76
2022/09/07 09:54:24;;;;;;;0.00;0.00;;;24.30;98.30;;;;;;5071969;28;20040;-78
2022/09/07 09:56:51;;;;;;;0.00;0.00;;;24.30;98.00;;;;;;5074945;28;20055;-79
2022/09/07 09:59:24;;;;;;;0.00;0.00;;;24.30;98.30;;;;;;5072479;28;20071;-76
2022/09/07 10:02:25;;;;;;;0.00;0.00;;;24.30;98.90;;;;;;5075087;28;20044;-79
2022/09/07 10:05:32;;;;;;;0.00;0.00;;;24.30;99.10;;;;;;5065388;28;20048;-79
2022/09/07 10:07:59;;;;;;;0.00;0.00;;;24.20;98.40;;;;;;5062627;28;20039;-79
2022/09/07 10:10:28;;;;;;;0.00;0.00;;;24.10;98.70;;;;;;5062799;28;20048;-79
2022/09/07 10:12:56;;;;;;;0.00;0.00;;;24.20;99.10;;;;;;5070275;28;20043;-79
2022/09/07 10:15:27;;;;;;;0.00;0.00;;;24.30;99.20;;;;;;5069048;28;20084;-78
2022/09/07 10:17:54;;;;;;;0.00;0.00;;;24.30;99.30;;;;;;5065835;28;20086;-80
2022/09/07 10:20:35;;;;;;;0.00;0.00;;;24.40;98.90;;;;;;5066043;28;20043;-79
2022/09/07 10:23:03;;;;;;;0.00;0.00;;;24.50;99.00;;;;;;5070901;28;20066;-78
2022/09/07 10:25:35;;;;;;;0.00;0.00;;;24.50;98.90;;;;;;5072726;28;20403;-79
2022/09/07 10:28:12;;;;;;;0.00;0.00;;;24.50;97.90;;;;;;5062622;28;20043;-79
2022/09/07 10:30:50;;;;;;;0.00;0.00;;;24.60;98.10;;;;;;5062097;28;20046;-78
2022/09/07 10:33:23;;;;;;;0.00;0.00;;;24.70;97.90;;;;;;5064012;28;20047;-77
2022/09/07 10:35:57;;;;;;;0.00;0.00;;;24.90;97.80;;;;;;5063663;28;20050;-78
2022/09/07 10:38:27;;;;;;;0.00;0.00;;;25.00;97.90;;;;;;5071106;28;20036;-79
2022/09/07 10:41:02;;;;;;;0.00;0.00;;;24.90;96.20;;;;;;5064258;28;20054;-78
2022/09/07 10:43:40;;;;;;;0.00;0.00;;;24.60;96.50;;;;;;5066544;28;20040;-79
2022/09/07 10:46:27;;;;;;;0.00;0.00;;;24.60;96.70;;;;;;5064696;28;20043;-76
2022/09/07 10:49:22;;;;;;;0.00;0.00;;;24.80;96.80;;;;;;5057633;28;20459;-79
2022/09/07 10:52:03;;;;;;;0.00;0.00;;;25.00;95.90;;;;;;5066983;28;20445;-79
2022/09/07 10:54:39;;;;;;;0.00;0.00;;;24.80;95.10;;;;;;5069670;28;20048;-77
2022/09/07 10:57:29;;;;;;;0.00;0.00;;;24.40;95.70;;;;;;5063809;28;20045;-80
2022/09/07 11:00:06;;;;;;;0.00;0.00;;;24.20;96.20;;;;;;5064197;28;20423;-78
2022/09/07 11:02:52;;;;;;;0.00;0.00;;;24.20;96.50;;;;;;5061765;28;20052;-80
2022/09/07 11:05:51;;;;;;;0.00;0.00;;;24.40;96.70;;;;;;5061812;28;20314;-78
2022/09/07 11:08:33;;;;;;;0.00;0.00;;;24.30;96.40;;;;;;5059084;28;20037;-78
2022/09/07 11:11:26;;;;;;;0.00;0.00;;;24.50;97.00;;;;;;5062469;28;20052;-79
2022/09/07 11:14:18;;;;;;;0.00;0.00;;;24.60;95.80;;;;;;5080538;28;20056;-78
2022/09/07 11:16:50;;;;;;;0.00;0.00;;;24.80;96.00;;;;;;5078252;28;20051;-80
2022/09/07 11:19:22;;;;;;;0.00;0.00;;;24.80;96.00;;;;;;5068940;28;20032;-80
2022/09/07 11:22:26;;;;;;;0.00;0.00;;;24.80;96.10;;;;;;5068806;28;20458;-78
2022/09/07 11:24:58;;;;;;;0.00;0.00;;;25.00;95.00;;;;;;5065480;28;20519;-81
2022/09/07 11:27:50;;;;;;;0.00;0.00;;;24.90;94.90;;;;;;5059637;28;20059;-79
2022/09/07 11:30:21;;;;;;;0.00;0.00;;;24.70;95.10;;;;;;5065746;28;20075;-79
2022/09/07 11:32:57;;;;;;;0.00;0.00;;;24.70;95.10;;;;;;5062635;28;20162;-80
2022/09/07 11:35:34;;;;;;;0.00;0.00;;;24.50;95.60;;;;;;5064559;28;20056;-78
2022/09/07 11:38:09;;;;;;;0.00;0.00;;;24.60;95.30;;;;;;5063288;28;20051;-78
2022/09/07 11:40:41;;;;;;;0.00;0.00;;;24.70;95.00;;;;;;5072654;28;20052;-77
2022/09/07 11:43:16;;;;;;;0.00;0.00;;;24.90;95.40;;;;;;5066005;28;20047;-77
2022/09/07 11:45:48;;;;;;;0.00;0.00;;;25.00;93.90;;;;;;5062896;28;20408;-79
2022/09/07 11:48:20;;;;;;;0.00;0.00;;;25.10;95.10;;;;;;5060177;28;20045;-81
2022/09/07 11:50:50;;;;;;;0.00;0.00;;;25.30;94.50;;;;;;5060189;28;20131;-78
2022/09/07 11:53:20;;;;;;;0.00;0.00;;;25.50;94.30;;;;;;5073507;28;20044;-79
2022/09/07 11:55:52;;;;;;;0.00;0.00;;;25.50;93.00;;;;;;5072440;28;20048;-78
2022/09/07 11:58:51;;;;;;;0.00;0.00;;;25.30;93.20;;;;;;5069430;28;20029;-79
2022/09/07 12:01:30;;;;;;;0.00;0.00;;;25.40;92.80;;;;;;5065462;28;20493;-78
2022/09/07 12:04:34;;;;;;;0.00;0.00;;;25.40;93.20;;;;;;5071206;28;20037;-77
2022/09/07 12:07:29;;;;;;;0.00;0.00;;;25.30;93.70;;;;;;5058678;28;20077;-78
2022/09/07 12:10:13;;;;;;;0.00;0.00;;;25.30;93.80;;;;;;5069005;28;20329;-80
2022/09/07 12:12:53;;;;;;;0.00;0.00;;;25.30;93.10;;;;;;5066896;28;20045;-76
2022/09/07 12:15:29;;;;;;;0.00;0.00;;;25.00;93.00;;;;;;5061876;28;20043;-77
2022/09/07 12:18:16;;;;;;;0.00;0.00;;;25.00;93.30;;;;;;5067287;28;20037;-79
2022/09/07 12:20:44;;;;;;;0.00;0.00;;;25.00;93.40;;;;;;5064356;28;20052;-77
2022/09/07 12:23:28;;;;;;;0.00;0.00;;;25.10;93.50;;;;;;5055157;28;20378;-77
2022/09/07 12:26:24;;;;;;;0.00;0.00;;;25.20;93.90;;;;;;5083645;28;20044;-79
2022/09/07 12:29:18;;;;;;;0.00;0.00;;;25.00;93.60;;;;;;5062652;28;20499;-79
2022/09/07 12:31:47;;;;;;;0.00;0.00;;;25.00;93.80;;;;;;5067073;28;20141;-77
2022/09/07 12:34:50;;;;;;;0.00;0.00;;;25.20;93.60;;;;;;5057459;28;20455;-77
2022/09/07 12:37:39;;;;;;;0.00;0.00;;;25.10;93.70;;;;;;5065466;28;20045;-77
2022/09/07 12:40:48;;;;;;;0.00;0.00;;;25.20;93.40;;;;;;5063861;28;20052;-80
2022/09/07 12:43:49;;;;;;;0.00;0.00;;;25.20;93.60;;;;;;5055340;28;20052;-80
2022/09/07 12:46:42;;;;;;;0.00;0.00;;;25.20;93.70;;;;;;5030831;28;20147;-79
2022/09/07 12:49:44;;;;;;;0.00;0.00;;;25.20;93.80;;;;;;5062593;28;20036;-76
2022/09/07 12:52:45;;;;;;;0.00;0.00;;;25.20;93.00;;;;;;5066212;28;20110;-80
2022/09/07 12:55:24;;;;;;;0.00;0.00;;;25.30;92.90;;;;;;5063444;28;20404;-77
2022/09/07 12:58:10;;;;;;;0.00;0.00;;;25.20;92.80;;;;;;5062177;28;20040;-79
2022/09/07 13:00:51;;;;;;;0.00;0.00;;;25.30;93.40;;;;;;5062014;28;20053;-79
2022/09/07 13:03:44;;;;;;;0.00;0.00;;;25.30;92.80;;;;;;5070137;28;20036;-80
2022/09/07 13:06:34;;;;;;;0.00;0.00;;;25.20;92.60;;;;;;5068980;28;20040;-81
2022/09/07 13:09:30;;;;;;;0.00;0.00;;;25.10;93.30;;;;;;5066845;28;20524;-78
2022/09/07 13:11:57;;;;;;;0.00;0.00;;;25.10;93.00;;;;;;5057777;28;20409;-78
2022/09/07 13:14:26;;;;;;;0.00;0.00;;;25.40;93.70;;;;;;5064374;28;20032;-77
2022/09/07 13:19:54;;;;;;;0.00;0.00;;;25.80;93.00;;;;;;5084950;28;20074;-81
2022/09/07 13:22:58;;;;;;;0.00;0.00;;;26.00;93.00;;;;;;5081560;28;20040;-80